createdAt,value
2023-05-05T00:01:16.589Z,83.80
2023-05-05T00:03:43.469Z,83.80
2023-05-05T00:06:10.238Z,83.90
2023-05-05T00:08:36.966Z,83.90
2023-05-05T00:11:03.731Z,83.80
2023-05-05T00:13:30.666Z,83.90
2023-05-05T00:15:57.537Z,83.70
2023-05-05T00:18:25.293Z,83.80
2023-05-05T00:20:52.258Z,83.90
2023-05-05T00:23:19.227Z,84.10
2023-05-05T00:25:46.031Z,84.10
2023-05-05T00:28:14.248Z,84.20
2023-05-05T00:30:41.081Z,84.30
2023-05-05T00:33:07.885Z,84.40
2023-05-05T00:35:34.672Z,84.40
2023-05-05T00:38:01.386Z,84.50
2023-05-05T00:40:28.767Z,84.50
2023-05-05T00:42:55.709Z,84.80
2023-05-05T00:45:22.626Z,85.00
2023-05-05T00:47:51.376Z,84.80
2023-05-05T00:50:38.426Z,84.60
2023-05-05T00:53:06.607Z,84.50
2023-05-05T00:55:34.175Z,84.50
2023-05-05T00:58:01.656Z,84.50
2023-05-05T01:00:29.968Z,84.50
2023-05-05T01:02:57.100Z,84.40
2023-05-05T01:05:24.712Z,84.50
2023-05-05T01:08:03.017Z,84.30
2023-05-05T01:10:40.974Z,84.30
2023-05-05T01:13:25.663Z,84.40
2023-05-05T01:16:01.457Z,84.40
2023-05-05T01:18:39.023Z,84.60
2023-05-05T01:21:31.284Z,84.60
2023-05-05T01:24:20.311Z,84.60
2023-05-05T01:27:05.541Z,84.80
2023-05-05T01:29:47.663Z,84.80
2023-05-05T01:32:15.241Z,84.90
2023-05-05T01:35:01.347Z,85.10
2023-05-05T01:37:46.581Z,85.90
2023-05-05T01:40:13.430Z,85.30
2023-05-05T01:42:41.573Z,85.00
2023-05-05T01:45:09.292Z,84.70
2023-05-05T01:47:36.369Z,84.60
2023-05-05T01:50:03.964Z,84.60
2023-05-05T01:52:32.431Z,84.70
2023-05-05T01:54:59.150Z,84.60
2023-05-05T01:57:25.843Z,85.60
2023-05-05T01:59:52.542Z,85.00
2023-05-05T02:02:19.323Z,84.60
2023-05-05T02:04:46.497Z,84.60
2023-05-05T02:07:13.314Z,84.70
2023-05-05T02:09:40.012Z,84.90
2023-05-05T02:12:07.180Z,84.80
2023-05-05T02:14:34.023Z,84.90
2023-05-05T02:17:02.058Z,85.00
2023-05-05T02:19:31.109Z,85.10
2023-05-05T02:21:58.440Z,85.30
2023-05-05T02:24:26.360Z,85.40
2023-05-05T02:26:53.289Z,85.60
2023-05-05T02:29:22.402Z,85.30
2023-05-05T02:31:53.746Z,85.90
2023-05-05T02:34:22.629Z,85.90
2023-05-05T02:36:50.647Z,86.60
2023-05-05T02:39:21.864Z,85.40
2023-05-05T02:41:48.642Z,85.10
2023-05-05T02:44:15.321Z,85.10
2023-05-05T02:46:42.877Z,85.10
2023-05-05T02:49:09.581Z,85.10
2023-05-05T02:51:36.441Z,85.10
2023-05-05T02:54:04.144Z,85.10
2023-05-05T02:56:42.658Z,85.10
2023-05-05T02:59:29.469Z,84.90
2023-05-05T03:02:15.016Z,85.80
2023-05-05T03:04:50.317Z,85.30
2023-05-05T03:07:23.870Z,85.30
2023-05-05T03:10:15.323Z,85.20
2023-05-05T03:12:46.800Z,85.50
2023-05-05T03:15:13.572Z,85.90
2023-05-05T03:17:40.761Z,85.70
2023-05-05T03:20:07.975Z,85.80
2023-05-05T03:22:38.036Z,85.80
2023-05-05T03:25:07.103Z,85.90
2023-05-05T03:27:33.837Z,86.40
2023-05-05T03:30:00.577Z,86.40
2023-05-05T03:32:27.389Z,86.10
2023-05-05T03:34:54.118Z,86.00
2023-05-05T03:37:20.777Z,85.70
2023-05-05T03:39:47.454Z,85.90
2023-05-05T03:42:14.114Z,85.60
2023-05-05T03:44:40.860Z,85.60
2023-05-05T03:47:08.313Z,85.60
2023-05-05T03:49:34.999Z,86.60
2023-05-05T03:52:01.937Z,85.90
2023-05-05T03:54:28.682Z,85.90
2023-05-05T03:56:56.079Z,85.50
2023-05-05T03:59:22.743Z,85.60
2023-05-05T04:01:49.991Z,85.60
2023-05-05T04:04:16.876Z,85.70
2023-05-05T04:06:43.635Z,85.80
2023-05-05T04:09:12.122Z,85.90
2023-05-05T04:11:39.633Z,86.10
2023-05-05T04:14:06.332Z,86.10
2023-05-05T04:16:33.225Z,86.20
2023-05-05T04:19:00.017Z,86.80
2023-05-05T04:21:26.694Z,86.30
2023-05-05T04:23:53.385Z,86.90
2023-05-05T04:26:20.053Z,86.80
2023-05-05T04:28:46.808Z,86.80
2023-05-05T04:31:13.546Z,86.70
2023-05-05T04:33:41.014Z,86.90
2023-05-05T04:36:08.270Z,86.50
2023-05-05T04:38:35.926Z,87.10
2023-05-05T04:41:06.423Z,86.30
2023-05-05T04:43:33.129Z,86.30
2023-05-05T04:45:59.996Z,86.40
2023-05-05T04:48:26.714Z,86.50
2023-05-05T04:50:53.463Z,86.50
2023-05-05T04:53:20.147Z,86.90
2023-05-05T04:55:46.855Z,86.10
2023-05-05T04:58:13.620Z,86.30
2023-05-05T05:00:41.512Z,86.20
2023-05-05T05:03:08.292Z,86.40
2023-05-05T05:05:35.132Z,86.50
2023-05-05T05:08:01.801Z,86.80
2023-05-05T05:10:28.711Z,86.80
2023-05-05T05:12:55.613Z,86.80
2023-05-05T05:15:22.454Z,87.20
2023-05-05T05:17:49.194Z,87.60
2023-05-05T05:20:15.931Z,87.50
2023-05-05T05:22:43.692Z,87.70
2023-05-05T05:25:10.974Z,87.30
2023-05-05T05:27:39.077Z,87.70
2023-05-05T05:30:06.736Z,87.30
2023-05-05T05:32:33.758Z,87.30
2023-05-05T05:35:00.515Z,87.90
2023-05-05T05:37:31.148Z,88.30
2023-05-05T05:39:57.896Z,89.90
2023-05-05T05:42:24.555Z,90.20
2023-05-05T05:44:51.218Z,91.10
2023-05-05T05:47:17.926Z,90.30
2023-05-05T05:49:44.641Z,90.00
2023-05-05T05:52:12.779Z,90.00
2023-05-05T05:54:39.431Z,90.10
2023-05-05T05:57:06.866Z,89.50
2023-05-05T05:59:33.547Z,89.60
2023-05-05T06:02:00.635Z,89.20
2023-05-05T06:04:27.433Z,89.40
2023-05-05T06:06:54.185Z,89.80
2023-05-05T06:09:20.871Z,89.80
2023-05-05T06:11:47.573Z,89.90
2023-05-05T06:14:14.517Z,89.50
2023-05-05T06:16:42.194Z,88.70
2023-05-05T06:19:11.718Z,88.60
2023-05-05T06:21:38.418Z,88.60
2023-05-05T06:24:05.608Z,88.70
2023-05-05T06:26:32.356Z,90.20
2023-05-05T06:28:59.051Z,89.80
2023-05-05T06:31:26.300Z,89.30
2023-05-05T06:33:53.340Z,89.10
2023-05-05T06:36:20.274Z,89.20
2023-05-05T06:38:47.368Z,89.60
2023-05-05T06:41:14.384Z,89.40
2023-05-05T06:43:44.217Z,89.20
2023-05-05T06:46:12.146Z,89.30
2023-05-05T06:48:38.926Z,89.30
2023-05-05T06:51:05.632Z,89.30
2023-05-05T06:53:32.353Z,89.40
2023-05-05T06:55:59.008Z,89.70
2023-05-05T06:58:25.704Z,89.30
2023-05-05T07:00:52.472Z,89.00
2023-05-05T07:03:19.308Z,88.70
2023-05-05T07:05:46.955Z,88.50
2023-05-05T07:08:14.246Z,89.10
2023-05-05T07:10:43.454Z,89.20
2023-05-05T07:13:10.530Z,89.10
2023-05-05T07:15:37.826Z,89.50
2023-05-05T07:18:04.895Z,89.70
2023-05-05T07:20:32.070Z,90.00
2023-05-05T07:22:59.128Z,90.00
2023-05-05T07:25:26.881Z,90.40
2023-05-05T07:27:53.736Z,91.50
2023-05-05T07:30:21.315Z,91.10
2023-05-05T07:32:48.429Z,90.60
2023-05-05T07:35:16.079Z,90.60
2023-05-05T07:37:46.167Z,90.40
2023-05-05T07:40:15.172Z,90.40
2023-05-05T07:42:42.155Z,91.10
2023-05-05T07:45:09.399Z,91.00
2023-05-05T07:47:36.770Z,90.90
2023-05-05T07:50:03.835Z,91.10
2023-05-05T07:52:45.148Z,90.90
2023-05-05T07:55:16.148Z,90.90
2023-05-05T07:57:42.832Z,91.20
2023-05-05T08:00:11.030Z,91.10
2023-05-05T08:02:38.112Z,90.80
2023-05-05T08:05:05.275Z,90.90
2023-05-05T08:07:32.080Z,90.60
2023-05-05T08:09:58.839Z,90.50
2023-05-05T08:12:25.816Z,90.30
2023-05-05T08:14:52.535Z,90.30
2023-05-05T08:17:19.266Z,90.30
2023-05-05T08:19:47.708Z,90.00
2023-05-05T08:22:15.579Z,90.40
2023-05-05T08:24:42.296Z,90.20
2023-05-05T08:27:09.021Z,90.10
2023-05-05T08:29:35.882Z,90.00
2023-05-05T08:32:02.596Z,90.00
2023-05-05T08:34:29.268Z,89.90
2023-05-05T08:36:56.520Z,89.70
2023-05-05T08:39:23.182Z,89.90
2023-05-05T08:41:49.979Z,89.60
2023-05-05T08:44:18.268Z,89.20
2023-05-05T08:46:45.421Z,88.90
2023-05-05T08:49:15.910Z,88.70
2023-05-05T08:51:43.427Z,88.70
2023-05-05T08:54:14.386Z,89.00
2023-05-05T08:56:43.887Z,90.00
2023-05-05T08:59:11.159Z,89.80
2023-05-05T09:01:37.941Z,90.00
2023-05-05T09:04:05.515Z,90.90
2023-05-05T09:06:33.873Z,90.70
2023-05-05T09:09:01.391Z,90.70
2023-05-05T09:11:28.272Z,90.20
2023-05-05T09:13:55.958Z,90.40
2023-05-05T09:16:23.250Z,90.50
2023-05-05T09:18:50.331Z,90.00
2023-05-05T09:21:24.724Z,90.10
2023-05-05T09:24:08.578Z,90.10
2023-05-05T09:26:40.982Z,90.00
2023-05-05T09:29:07.760Z,90.30
2023-05-05T09:31:35.195Z,90.60
2023-05-05T09:34:03.618Z,90.80
2023-05-05T09:36:43.535Z,90.80
2023-05-05T09:39:10.275Z,90.50
2023-05-05T09:41:42.104Z,91.10
2023-05-05T09:44:08.982Z,90.40
2023-05-05T09:46:35.982Z,90.40
2023-05-05T09:49:15.848Z,90.90
2023-05-05T09:51:42.539Z,90.50
2023-05-05T09:54:09.234Z,90.40
2023-05-05T09:56:40.320Z,90.50
2023-05-05T09:59:10.341Z,90.00
2023-05-05T10:01:37.162Z,90.10
2023-05-05T10:04:04.179Z,90.30
2023-05-05T10:07:00.574Z,90.30
2023-05-05T10:09:27.497Z,90.10
2023-05-05T10:11:54.300Z,89.90
2023-05-05T10:14:21.125Z,89.00
2023-05-05T10:16:52.365Z,83.20
2023-05-05T10:19:20.543Z,82.40
2023-05-05T10:21:52.140Z,84.00
2023-05-05T10:24:33.386Z,82.90
2023-05-05T10:27:03.641Z,83.00
2023-05-05T10:29:46.056Z,82.90
2023-05-05T10:32:56.826Z,83.40
2023-05-05T10:35:22.521Z,83.80
2023-05-05T10:37:49.949Z,85.70
2023-05-05T10:40:19.564Z,85.50
2023-05-05T10:42:47.278Z,86.40
2023-05-05T10:45:14.706Z,86.60
2023-05-05T10:47:41.687Z,86.50
2023-05-05T10:50:28.851Z,86.10
2023-05-05T10:53:20.116Z,86.40
2023-05-05T10:55:51.120Z,86.10
2023-05-05T10:58:51.270Z,86.20
2023-05-05T11:01:32.518Z,87.10
2023-05-05T11:04:20.555Z,88.10
2023-05-05T11:07:23.517Z,88.00
2023-05-05T11:10:01.597Z,88.90
2023-05-05T11:12:29.589Z,89.60
2023-05-05T11:15:23.901Z,88.60
2023-05-05T11:17:52.301Z,88.00
2023-05-05T11:20:36.107Z,88.20
2023-05-05T11:23:02.931Z,88.40
2023-05-05T11:25:40.660Z,88.40
2023-05-05T11:28:14.999Z,88.90
2023-05-05T11:31:17.945Z,88.30
2023-05-05T11:33:45.094Z,89.10
2023-05-05T11:36:31.690Z,90.50
2023-05-05T11:39:04.237Z,91.00
2023-05-05T11:41:33.967Z,90.60
2023-05-05T11:44:16.263Z,89.80
2023-05-05T11:46:52.817Z,91.40
2023-05-05T11:49:35.929Z,90.50
2023-05-05T11:52:10.117Z,92.70
2023-05-05T11:54:40.516Z,91.20
2023-05-05T11:57:08.492Z,90.60
2023-05-05T11:59:37.184Z,90.40
2023-05-05T12:02:04.565Z,90.40
2023-05-05T12:04:32.064Z,90.60
2023-05-05T12:07:00.362Z,90.30
2023-05-05T12:09:27.369Z,90.30
2023-05-05T12:11:56.320Z,91.20
2023-05-05T12:14:24.672Z,92.70
2023-05-05T12:17:06.497Z,94.80
2023-05-05T12:19:33.724Z,95.10
2023-05-05T12:22:04.337Z,95.60
2023-05-05T12:24:31.304Z,95.20
2023-05-05T12:27:08.346Z,96.50
2023-05-05T12:29:35.079Z,96.00
2023-05-05T12:32:01.896Z,95.50
2023-05-05T12:34:28.730Z,95.70
2023-05-05T12:36:56.188Z,95.50
2023-05-05T12:39:22.895Z,94.60
2023-05-05T12:41:49.874Z,94.30
2023-05-05T12:44:16.596Z,93.80
2023-05-05T12:46:46.623Z,93.10
2023-05-05T12:49:13.324Z,92.50
2023-05-05T12:51:52.912Z,91.90
2023-05-05T12:54:19.573Z,91.30
2023-05-05T12:56:47.264Z,90.80
2023-05-05T12:59:23.171Z,90.70
2023-05-05T13:01:57.224Z,91.00
2023-05-05T13:04:25.489Z,90.10
2023-05-05T13:07:12.204Z,85.10
2023-05-05T13:09:38.995Z,84.60
2023-05-05T13:12:07.144Z,83.20
2023-05-05T13:14:34.482Z,78.90
2023-05-05T13:17:01.248Z,80.60
2023-05-05T13:19:28.362Z,83.40
2023-05-05T13:21:56.366Z,84.40
2023-05-05T13:24:31.618Z,84.10
2023-05-05T13:27:05.511Z,84.70
2023-05-05T13:29:33.151Z,84.20
2023-05-05T13:32:00.064Z,84.60
2023-05-05T13:34:28.564Z,84.40
2023-05-05T13:36:55.215Z,84.80
2023-05-05T13:39:21.935Z,84.20
2023-05-05T13:41:48.659Z,84.30
2023-05-05T13:44:15.474Z,84.40
2023-05-05T13:46:42.777Z,84.60
2023-05-05T13:49:09.568Z,84.80
2023-05-05T13:51:36.959Z,85.10
2023-05-05T13:54:03.918Z,85.90
2023-05-05T13:56:30.735Z,86.20
2023-05-05T13:58:58.429Z,85.50
2023-05-05T14:01:25.805Z,86.10
2023-05-05T14:03:52.582Z,86.10
2023-05-05T14:06:19.467Z,86.20
2023-05-05T14:08:46.453Z,86.40
2023-05-05T14:11:13.865Z,86.00
2023-05-05T14:13:41.120Z,78.40
2023-05-05T14:16:07.926Z,74.90
2023-05-05T14:18:34.725Z,80.80
2023-05-05T14:21:01.457Z,79.80
2023-05-05T14:23:29.427Z,81.00
2023-05-05T14:25:56.472Z,83.60
2023-05-05T14:28:23.364Z,84.40
2023-05-05T14:30:50.093Z,82.80
2023-05-05T14:33:16.959Z,83.00
2023-05-05T14:35:43.730Z,82.60
2023-05-05T14:38:10.434Z,81.90
2023-05-05T14:40:37.446Z,81.40
2023-05-05T14:43:04.164Z,81.50
2023-05-05T14:45:31.799Z,81.50
2023-05-05T14:47:59.937Z,80.40
2023-05-05T14:50:26.691Z,79.60
2023-05-05T14:52:53.395Z,79.50
2023-05-05T14:55:20.322Z,74.10
2023-05-05T14:57:47.435Z,81.60
2023-05-05T15:00:14.869Z,80.20
2023-05-05T15:02:41.721Z,82.00
2023-05-05T15:05:08.932Z,78.10
2023-05-05T15:07:35.750Z,74.20
2023-05-05T15:10:02.551Z,72.80
2023-05-05T15:12:30.386Z,77.80
2023-05-05T15:14:57.077Z,75.00
2023-05-05T15:17:23.769Z,76.20
2023-05-05T15:19:50.549Z,76.30
2023-05-05T15:22:17.611Z,77.60
2023-05-05T15:24:44.597Z,78.10
2023-05-05T15:27:11.648Z,77.60
2023-05-05T15:29:38.769Z,75.40
2023-05-05T15:32:05.733Z,76.80
2023-05-05T15:34:34.906Z,78.90
2023-05-05T15:37:02.502Z,75.50
2023-05-05T15:39:30.320Z,75.70
2023-05-05T15:41:57.519Z,80.00
2023-05-05T15:44:24.228Z,79.30
2023-05-05T15:46:50.993Z,75.90
2023-05-05T15:49:17.909Z,77.70
2023-05-05T15:51:44.960Z,78.80
2023-05-05T15:54:11.634Z,77.30
2023-05-05T15:56:38.372Z,78.30
2023-05-05T15:59:05.234Z,79.80
2023-05-05T16:01:33.616Z,79.00
2023-05-05T16:04:01.968Z,79.90
2023-05-05T16:06:28.772Z,80.50
2023-05-05T16:08:58.421Z,80.20
2023-05-05T16:11:26.172Z,80.70
2023-05-05T16:13:53.222Z,80.40
2023-05-05T16:16:19.900Z,79.70
2023-05-05T16:18:46.664Z,80.30
2023-05-05T16:21:13.420Z,80.80
2023-05-05T16:23:40.188Z,81.30
2023-05-05T16:26:06.847Z,80.40
2023-05-05T16:28:34.312Z,80.10
2023-05-05T16:31:02.478Z,80.00
2023-05-05T16:33:29.391Z,80.00
2023-05-05T16:35:56.877Z,79.40
2023-05-05T16:38:23.591Z,79.50
2023-05-05T16:40:50.445Z,79.50
2023-05-05T16:43:17.239Z,79.90
2023-05-05T16:45:43.994Z,80.20
2023-05-05T16:48:10.789Z,79.80
2023-05-05T16:50:37.485Z,79.50
2023-05-05T16:53:04.240Z,79.60
2023-05-05T16:55:32.540Z,79.70
2023-05-05T16:57:59.236Z,79.80
2023-05-05T17:00:26.146Z,79.80
2023-05-05T17:02:52.934Z,79.80
2023-05-05T17:05:19.652Z,80.00
2023-05-05T17:07:48.218Z,79.60
2023-05-05T17:10:15.067Z,79.40
2023-05-05T17:12:41.882Z,79.00
2023-05-05T17:15:09.281Z,78.80
2023-05-05T17:17:36.284Z,79.00
2023-05-05T17:20:04.586Z,79.10
2023-05-05T17:22:32.466Z,79.20
2023-05-05T17:24:59.191Z,79.00
2023-05-05T17:27:25.873Z,78.50
2023-05-05T17:29:53.608Z,78.40
2023-05-05T17:32:20.380Z,78.30
2023-05-05T17:34:47.094Z,78.30
2023-05-05T17:37:13.820Z,78.50
2023-05-05T17:39:40.513Z,79.00
2023-05-05T17:42:07.508Z,80.20
2023-05-05T17:44:34.503Z,79.90
2023-05-05T17:47:04.123Z,80.30
2023-05-05T17:49:33.388Z,80.30
2023-05-05T17:52:01.466Z,81.00
2023-05-05T17:54:28.222Z,81.40
2023-05-05T17:56:55.002Z,81.80
2023-05-05T17:59:21.963Z,81.70
2023-05-05T18:01:48.959Z,82.10
2023-05-05T18:04:15.884Z,82.40
2023-05-05T18:06:42.598Z,82.60
2023-05-05T18:09:11.159Z,84.00
2023-05-05T18:11:38.322Z,84.50
2023-05-05T18:14:05.124Z,85.50
2023-05-05T18:16:33.304Z,87.10
2023-05-05T18:19:00.157Z,92.20
2023-05-05T18:21:27.096Z,89.20
2023-05-05T18:23:57.325Z,88.20
2023-05-05T18:26:28.967Z,87.10
2023-05-05T18:28:55.712Z,88.20
2023-05-05T18:31:22.902Z,90.00
2023-05-05T18:33:51.704Z,90.90
2023-05-05T18:36:18.419Z,91.30
2023-05-05T18:38:45.399Z,91.70
2023-05-05T18:41:12.298Z,91.70
2023-05-05T18:43:39.376Z,92.40
2023-05-05T18:46:06.225Z,92.50
2023-05-05T18:48:34.447Z,92.40
2023-05-05T18:51:04.077Z,92.40
2023-05-05T18:53:33.307Z,92.50
2023-05-05T18:56:01.379Z,93.10
2023-05-05T18:58:31.883Z,94.20
2023-05-05T19:00:59.005Z,94.10
2023-05-05T19:03:26.185Z,94.30
2023-05-05T19:05:53.195Z,94.40
2023-05-05T19:08:20.103Z,94.20
2023-05-05T19:10:46.895Z,94.30
2023-05-05T19:13:13.722Z,94.10
2023-05-05T19:15:40.441Z,94.00
2023-05-05T19:20:44.912Z,93.80
2023-05-05T19:23:12.217Z,93.80
2023-05-05T19:25:39.803Z,93.80
2023-05-05T19:28:06.564Z,93.80
2023-05-05T19:30:34.050Z,93.80
2023-05-05T19:33:00.947Z,93.80
2023-05-05T19:35:28.782Z,93.80
2023-05-05T19:37:56.052Z,93.80
2023-05-05T19:40:22.906Z,93.80
2023-05-05T19:42:49.664Z,93.80
2023-05-05T19:45:16.396Z,93.80
2023-05-05T19:47:43.121Z,93.80
2023-05-05T19:50:11.042Z,93.80
2023-05-05T19:52:42.560Z,93.80
2023-05-05T19:55:13.251Z,94.00
2023-05-05T19:57:40.580Z,94.20
2023-05-05T20:00:08.502Z,94.10
2023-05-05T20:02:37.022Z,93.90
2023-05-05T20:05:04.700Z,94.10
2023-05-05T20:07:31.448Z,94.10
2023-05-05T20:10:00.821Z,94.40
2023-05-05T20:12:27.605Z,94.50
2023-05-05T20:14:54.337Z,94.50
2023-05-05T20:17:21.470Z,94.30
2023-05-05T20:19:48.254Z,94.30
2023-05-05T20:22:15.054Z,94.10
2023-05-05T20:24:41.712Z,93.90
2023-05-05T20:27:08.485Z,93.90
2023-05-05T20:29:35.225Z,93.90
2023-05-05T20:32:02.542Z,93.80
2023-05-05T20:34:29.909Z,93.60
2023-05-05T20:36:57.867Z,93.50
2023-05-05T20:39:24.982Z,93.40
2023-05-05T20:41:51.698Z,93.30
2023-05-05T20:44:18.378Z,93.20
2023-05-05T20:46:45.106Z,93.30
2023-05-05T20:49:11.842Z,93.30
2023-05-05T20:51:38.504Z,93.10
2023-05-05T20:54:05.560Z,92.90
2023-05-05T20:56:33.477Z,92.80
2023-05-05T20:59:00.276Z,92.70
2023-05-05T21:01:27.077Z,92.60
2023-05-05T21:03:53.890Z,92.60
2023-05-05T21:06:20.578Z,92.60
2023-05-05T21:08:47.415Z,92.80
2023-05-05T21:11:14.132Z,93.40
2023-05-05T21:13:40.843Z,93.80
2023-05-05T21:16:07.727Z,93.50
2023-05-05T21:18:36.008Z,93.20
2023-05-05T21:21:04.476Z,93.00
2023-05-05T21:23:31.219Z,92.90
2023-05-05T21:25:57.949Z,92.80
2023-05-05T21:28:24.677Z,92.70
2023-05-05T21:31:10.340Z,92.60
2023-05-05T21:33:38.153Z,92.60
2023-05-05T21:36:06.079Z,92.40
2023-05-05T21:38:33.863Z,92.30
2023-05-05T21:41:01.135Z,92.20
2023-05-05T21:43:30.514Z,92.10
2023-05-05T21:46:00.764Z,92.00
2023-05-05T21:48:27.507Z,91.90
2023-05-05T21:50:54.513Z,91.80
2023-05-05T21:53:21.210Z,92.20
2023-05-05T21:55:48.158Z,91.80
2023-05-05T21:58:15.171Z,91.70
2023-05-05T22:00:42.710Z,91.70
2023-05-05T22:03:09.811Z,91.60
2023-05-05T22:05:36.690Z,91.70
2023-05-05T22:08:04.405Z,91.70
2023-05-05T22:10:31.276Z,91.70
2023-05-05T22:12:58.280Z,91.70
2023-05-05T22:15:29.841Z,91.80
2023-05-05T22:17:59.704Z,91.80
2023-05-05T22:20:26.580Z,91.80
2023-05-05T22:22:53.282Z,91.80
2023-05-05T22:25:20.143Z,91.90
2023-05-05T22:27:46.927Z,91.80
2023-05-05T22:30:13.848Z,91.80
2023-05-05T22:32:43.374Z,91.70
2023-05-05T22:35:10.616Z,91.80
2023-05-05T22:37:37.861Z,91.70
2023-05-05T22:40:06.391Z,91.60
2023-05-05T22:42:33.408Z,91.70
2023-05-05T22:45:00.243Z,91.90
2023-05-05T22:47:26.944Z,91.90
2023-05-05T22:49:53.795Z,91.90
2023-05-05T22:52:20.553Z,91.90
2023-05-05T22:54:47.332Z,91.70
2023-05-05T22:57:14.116Z,91.80
2023-05-05T22:59:40.940Z,91.60
2023-05-05T23:02:07.881Z,91.60
2023-05-05T23:04:34.626Z,91.60
2023-05-05T23:07:01.597Z,91.60
2023-05-05T23:09:28.338Z,91.70
2023-05-05T23:11:54.993Z,91.70
2023-05-05T23:14:21.875Z,91.80
2023-05-05T23:16:48.607Z,91.80
2023-05-05T23:19:15.505Z,91.90
2023-05-05T23:21:52.553Z,91.80
2023-05-05T23:24:20.702Z,91.70
2023-05-05T23:26:47.379Z,91.70
2023-05-05T23:29:14.036Z,91.70
2023-05-05T23:31:40.823Z,91.60
2023-05-05T23:34:07.983Z,91.60
2023-05-05T23:36:35.191Z,91.50
2023-05-05T23:39:01.854Z,91.50
2023-05-05T23:41:28.541Z,91.50
2023-05-05T23:43:55.232Z,91.50
2023-05-05T23:46:22.059Z,91.60
2023-05-05T23:48:49.689Z,91.60
2023-05-05T23:51:16.711Z,91.60
2023-05-05T23:53:43.501Z,91.60
2023-05-05T23:56:11.230Z,91.70
2023-05-05T23:58:37.926Z,91.80
